Yellowknife Airport
CYZF : rendu visible

Aérodrome :











RETROUVEZ-NOUS SUR...

 
LOGIN :

S'inscrire | Disclaimer

   EN    FR    IT 

 









Légende :    VFR   VFR Marginal   IFR   IFR Intensif   IFR Très Intensif
Visi : 
Plafond : 
>= 8 km
>= 3000ft
5 à 8 km
1000 à 3000 ft
1500m à 5 km
500 à 1000 ft
800 à 1500m
200 à 500 ft
< 800m
< 200 ft
Symboles :   Orages  Brouillard  Fortes neiges  Fortes précipitations  Vent > 20 kt






- Altitude de l'aérodrome : 675 ft
- Code IATA : YZF


CYZF - Yellowknife

DERNIER METAR :
  • 072300Z 24004KT 15SM -RA OVC068 19/15 A2947 RMK AC8 SLP987 DENSITY ALT 1800FT

METARs EXPIRÉS :
  • 072200Z 22004KT 190V250 15SM BKN086 OVC110 18/16 A2947 RMK AC6AC2 SLP985 DENSITY ALT 1800FT
  • 072100Z CCA 19007KT 15SM -RA BKN065 OVC110 19/16 A2947 RMK SC6AC2 SLP986 DENSITY ALT 1800FT

TAF TAF CYZF
Valide du 08 à 00h jusqu'au 09 à 00h UTC


072338Z 0800/0824 VRB03KT P6SM -RA FEW040 BKN060
BECMG 0801/0803 20008KT
FM080300 20008KT P6SM -RA SCT020 OVC040
TEMPO 0803/0809 5SM -SHRA BR SCT008 OVC020
FM080900 21008KT P6SM FEW020 BKN050
TEMPO 0809/0815 P6SM -SHRA RMK NXT FCST BY 080600Z
FIR CZEG / Amérique du Nord



MET'MAP, la Météo Aéronautique d'un coup d'oeil ! - Copyright ORBIFLY Décembre 2007 - Disclaimer

ORBIFLY MET'MAP TEAM :

Programmation & Développement : Alexandra Zaïnal
Sur une idée originale de : Baudouin d'Aumeries
Assistance à la programmation : Marc-Olivier Méhu
Soutien technique & logistique : Manuel Goepfert

Contact : metmap@orbifly.com




SOURCES & CREDITS :

   NOAA       Earth
Advisory